George Town, Cayman Islands
Current Conditions -  °F | °C
As of 2:00 PM on Saturday 25 Oct 2014 (Local Time) from MWCR Reporting Station
Scattered Clouds Scattered Clouds  
Wind Chill: 82°   Ceiling: Unl
Heat Index: 91°   Visibility: 6mi
Dew Point: 77°   Wind: 6mph
Humidity: 84%   Direction: 240°WSW
Pressure: 29.83"   Gusts: NA
Location:  19.28°N, 81.39°W
Report Text: MWCR 251900Z 24005KT 190V270 9999 FEW016 SCT040 28/25 Q1010
Loading
Personal Weather Stations






























Interactive Weather Map
Tropical Storm Tracking
New forecast layout! Learn more

10-Day Weather Forecast

Advertisements
Track Severe Weather on mobile